Argyle, Florida
Current Conditions -  °F | °C
As of 7:35 PM on Wednesday 26 Nov 2014 (Local Time) from K54J Reporting Station
Clear Clear  
Wind Chill: 46°   Ceiling: Unl
Heat Index: 47°   Visibility: 10mi
Dew Point: 39°   Wind: 5mph
Humidity: 73%   Direction: 230°SW
Pressure: 30.19"   Gusts: NA
Location:  30.72°N, 86.04°W
Report Text: K54J 270135Z AUTO 23004KT 10SM CLR 09/04 A3019 RMK AO2 T00860041
Loading
Personal Weather Stations






























Interactive Weather Map New forecast layout! Learn more

10-Day Weather Forecast

Advertisements
Track Severe Weather on mobile